sensor_id;sensor_type;location;lat;lon;timestamp;temperature;humidity
86002;DHT22;76581;51.988;5.854;2024-02-21T00:00:42;10.00;89.50
86002;DHT22;76581;51.988;5.854;2024-02-21T00:01:43;10.00;89.50
86002;DHT22;76581;51.988;5.854;2024-02-21T00:02:43;10.00;89.50
86002;DHT22;76581;51.988;5.854;2024-02-21T00:03:44;10.00;89.50
86002;DHT22;76581;51.988;5.854;2024-02-21T00:04:44;10.00;89.60
86002;DHT22;76581;51.988;5.854;2024-02-21T00:05:45;9.90;89.50
86002;DHT22;76581;51.988;5.854;2024-02-21T00:06:45;10.00;89.60
86002;DHT22;76581;51.988;5.854;2024-02-21T00:07:46;10.00;89.60
86002;DHT22;76581;51.988;5.854;2024-02-21T00:08:46;9.90;89.40
86002;DHT22;76581;51.988;5.854;2024-02-21T00:09:47;10.00;89.50
86002;DHT22;76581;51.988;5.854;2024-02-21T00:10:47;10.00;89.50
86002;DHT22;76581;51.988;5.854;2024-02-21T00:11:49;9.90;89.50
86002;DHT22;76581;51.988;5.854;2024-02-21T00:12:49;9.90;89.40
86002;DHT22;76581;51.988;5.854;2024-02-21T00:13:50;9.90;89.40
86002;DHT22;76581;51.988;5.854;2024-02-21T00:14:53;9.90;89.50
86002;DHT22;76581;51.988;5.854;2024-02-21T00:15:54;9.90;89.40
86002;DHT22;76581;51.988;5.854;2024-02-21T00:16:54;9.90;89.60
86002;DHT22;76581;51.988;5.854;2024-02-21T00:17:55;9.90;89.60
86002;DHT22;76581;51.988;5.854;2024-02-21T00:18:55;9.90;89.60
86002;DHT22;76581;51.988;5.854;2024-02-21T00:19:56;9.90;89.60
86002;DHT22;76581;51.988;5.854;2024-02-21T00:20:56;9.90;89.60
86002;DHT22;76581;51.988;5.854;2024-02-21T00:21:57;9.90;89.70
86002;DHT22;76581;51.988;5.854;2024-02-21T00:22:57;9.90;89.60
86002;DHT22;76581;51.988;5.854;2024-02-21T00:23:58;9.90;90.10
86002;DHT22;76581;51.988;5.854;2024-02-21T00:24:59;9.90;89.60
86002;DHT22;76581;51.988;5.854;2024-02-21T00:25:59;10.00;89.70
86002;DHT22;76581;51.988;5.854;2024-02-21T00:27:00;9.90;89.70
86002;DHT22;76581;51.988;5.854;2024-02-21T00:28:00;9.90;89.70
86002;DHT22;76581;51.988;5.854;2024-02-21T00:29:01;9.90;89.60
86002;DHT22;76581;51.988;5.854;2024-02-21T00:30:02;9.90;89.70
86002;DHT22;76581;51.988;5.854;2024-02-21T00:31:03;9.90;89.70
86002;DHT22;76581;51.988;5.854;2024-02-21T00:32:04;9.90;89.60
86002;DHT22;76581;51.988;5.854;2024-02-21T00:33:04;9.90;89.60
86002;DHT22;76581;51.988;5.854;2024-02-21T00:34:05;10.00;89.70
86002;DHT22;76581;51.988;5.854;2024-02-21T00:35:06;10.00;89.70
86002;DHT22;76581;51.988;5.854;2024-02-21T00:36:06;9.90;89.60
86002;DHT22;76581;51.988;5.854;2024-02-21T00:37:07;10.00;89.70
86002;DHT22;76581;51.988;5.854;2024-02-21T00:38:08;9.90;89.60
86002;DHT22;76581;51.988;5.854;2024-02-21T00:39:09;10.00;89.70
86002;DHT22;76581;51.988;5.854;2024-02-21T00:40:09;10.00;89.80
86002;DHT22;76581;51.988;5.854;2024-02-21T00:41:10;10.00;89.80
86002;DHT22;76581;51.988;5.854;2024-02-21T00:42:10;9.90;89.60
86002;DHT22;76581;51.988;5.854;2024-02-21T00:43:11;10.00;89.70
86002;DHT22;76581;51.988;5.854;2024-02-21T00:44:11;10.00;89.70
86002;DHT22;76581;51.988;5.854;2024-02-21T00:45:12;10.00;89.70
86002;DHT22;76581;51.988;5.854;2024-02-21T00:46:13;10.00;89.70
86002;DHT22;76581;51.988;5.854;2024-02-21T00:47:13;10.00;89.70
86002;DHT22;76581;51.988;5.854;2024-02-21T00:48:14;10.00;89.70
86002;DHT22;76581;51.988;5.854;2024-02-21T00:49:14;10.00;89.60
86002;DHT22;76581;51.988;5.854;2024-02-21T00:50:15;10.00;89.60
86002;DHT22;76581;51.988;5.854;2024-02-21T00:51:16;9.90;89.50
86002;DHT22;76581;51.988;5.854;2024-02-21T00:52:16;10.00;89.60
86002;DHT22;76581;51.988;5.854;2024-02-21T00:53:17;10.00;90.10
86002;DHT22;76581;51.988;5.854;2024-02-21T00:54:17;10.00;89.60
86002;DHT22;76581;51.988;5.854;2024-02-21T00:55:18;10.00;89.60
86002;DHT22;76581;51.988;5.854;2024-02-21T00:56:18;10.00;89.60
86002;DHT22;76581;51.988;5.854;2024-02-21T00:57:19;10.00;89.70
86002;DHT22;76581;51.988;5.854;2024-02-21T00:58:20;10.00;89.70
86002;DHT22;76581;51.988;5.854;2024-02-21T00:59:20;9.90;89.60
86002;DHT22;76581;51.988;5.854;2024-02-21T01:00:21;10.00;89.60
86002;DHT22;76581;51.988;5.854;2024-02-21T01:01:23;10.00;89.60
86002;DHT22;76581;51.988;5.854;2024-02-21T01:02:24;9.90;89.60
86002;DHT22;76581;51.988;5.854;2024-02-21T01:03:24;10.00;89.70
86002;DHT22;76581;51.988;5.854;2024-02-21T01:04:25;10.00;89.60
86002;DHT22;76581;51.988;5.854;2024-02-21T01:05:26;10.00;89.60
86002;DHT22;76581;51.988;5.854;2024-02-21T01:06:27;10.00;89.60
86002;DHT22;76581;51.988;5.854;2024-02-21T01:07:28;10.00;89.70
86002;DHT22;76581;51.988;5.854;2024-02-21T01:08:28;10.00;89.70
86002;DHT22;76581;51.988;5.854;2024-02-21T01:09:29;10.00;89.80
86002;DHT22;76581;51.988;5.854;2024-02-21T01:10:29;10.00;89.70
86002;DHT22;76581;51.988;5.854;2024-02-21T01:11:30;10.00;89.60
86002;DHT22;76581;51.988;5.854;2024-02-21T01:12:30;10.00;89.60
86002;DHT22;76581;51.988;5.854;2024-02-21T01:13:31;9.90;89.60
86002;DHT22;76581;51.988;5.854;2024-02-21T01:14:32;10.00;89.70
86002;DHT22;76581;51.988;5.854;2024-02-21T01:15:32;10.00;89.70
86002;DHT22;76581;51.988;5.854;2024-02-21T01:16:33;10.00;89.60
86002;DHT22;76581;51.988;5.854;2024-02-21T01:17:34;10.00;89.70
86002;DHT22;76581;51.988;5.854;2024-02-21T01:18:36;10.00;89.70
86002;DHT22;76581;51.988;5.854;2024-02-21T01:19:37;10.00;89.70
86002;DHT22;76581;51.988;5.854;2024-02-21T01:20:38;10.00;89.70
86002;DHT22;76581;51.988;5.854;2024-02-21T01:21:39;10.00;89.60
86002;DHT22;76581;51.988;5.854;2024-02-21T01:22:39;10.00;89.60
86002;DHT22;76581;51.988;5.854;2024-02-21T01:23:40;10.00;89.60
86002;DHT22;76581;51.988;5.854;2024-02-21T01:24:41;10.00;89.50
86002;DHT22;76581;51.988;5.854;2024-02-21T01:25:41;10.00;89.40
86002;DHT22;76581;51.988;5.854;2024-02-21T01:26:42;10.00;89.40
86002;DHT22;76581;51.988;5.854;2024-02-21T01:27:43;10.00;89.40
86002;DHT22;76581;51.988;5.854;2024-02-21T01:28:43;10.00;89.40
86002;DHT22;76581;51.988;5.854;2024-02-21T01:29:45;10.00;89.40
86002;DHT22;76581;51.988;5.854;2024-02-21T01:30:46;10.00;89.40
86002;DHT22;76581;51.988;5.854;2024-02-21T01:31:47;10.00;89.40
86002;DHT22;76581;51.988;5.854;2024-02-21T01:32:47;10.00;89.40
86002;DHT22;76581;51.988;5.854;2024-02-21T01:33:48;10.00;89.40
86002;DHT22;76581;51.988;5.854;2024-02-21T01:34:48;10.00;89.50
86002;DHT22;76581;51.988;5.854;2024-02-21T01:35:49;10.00;89.50
86002;DHT22;76581;51.988;5.854;2024-02-21T01:36:50;9.90;89.40
86002;DHT22;76581;51.988;5.854;2024-02-21T01:37:50;10.00;89.60
86002;DHT22;76581;51.988;5.854;2024-02-21T01:38:52;10.00;89.60
86002;DHT22;76581;51.988;5.854;2024-02-21T01:39:53;10.00;89.60
86002;DHT22;76581;51.988;5.854;2024-02-21T01:40:53;10.00;89.50
86002;DHT22;76581;51.988;5.854;2024-02-21T01:41:54;10.00;89.60
86002;DHT22;76581;51.988;5.854;2024-02-21T01:42:55;10.00;89.50
86002;DHT22;76581;51.988;5.854;2024-02-21T01:43:56;10.00;89.50
86002;DHT22;76581;51.988;5.854;2024-02-21T01:44:56;9.90;89.40
86002;DHT22;76581;51.988;5.854;2024-02-21T01:45:57;9.90;89.50
86002;DHT22;76581;51.988;5.854;2024-02-21T01:46:58;9.90;89.50
86002;DHT22;76581;51.988;5.854;2024-02-21T01:47:58;9.90;89.50
86002;DHT22;76581;51.988;5.854;2024-02-21T01:48:59;9.90;89.50
86002;DHT22;76581;51.988;5.854;2024-02-21T01:50:00;9.90;89.60
86002;DHT22;76581;51.988;5.854;2024-02-21T01:51:03;9.90;89.60
86002;DHT22;76581;51.988;5.854;2024-02-21T01:52:04;9.90;89.60
86002;DHT22;76581;51.988;5.854;2024-02-21T01:53:05;9.90;89.70
86002;DHT22;76581;51.988;5.854;2024-02-21T01:54:06;9.90;89.70
86002;DHT22;76581;51.988;5.854;2024-02-21T01:55:07;9.90;89.60
86002;DHT22;76581;51.988;5.854;2024-02-21T01:56:10;9.90;89.60
86002;DHT22;76581;51.988;5.854;2024-02-21T01:57:10;9.90;89.70
86002;DHT22;76581;51.988;5.854;2024-02-21T01:58:13;9.90;89.70
86002;DHT22;76581;51.988;5.854;2024-02-21T01:59:15;9.90;89.70
86002;DHT22;76581;51.988;5.854;2024-02-21T02:00:17;9.90;89.70
86002;DHT22;76581;51.988;5.854;2024-02-21T02:01:19;9.90;89.70
86002;DHT22;76581;51.988;5.854;2024-02-21T02:02:19;9.90;89.70
86002;DHT22;76581;51.988;5.854;2024-02-21T02:03:20;9.90;89.70
86002;DHT22;76581;51.988;5.854;2024-02-21T02:04:21;9.90;89.70
86002;DHT22;76581;51.988;5.854;2024-02-21T02:05:22;9.90;89.70
86002;DHT22;76581;51.988;5.854;2024-02-21T02:06:22;9.90;89.80
86002;DHT22;76581;51.988;5.854;2024-02-21T02:07:23;9.90;89.70
86002;DHT22;76581;51.988;5.854;2024-02-21T02:08:24;9.90;89.80
86002;DHT22;76581;51.988;5.854;2024-02-21T02:09:24;9.90;89.70
86002;DHT22;76581;51.988;5.854;2024-02-21T02:10:25;9.90;89.80
86002;DHT22;76581;51.988;5.854;2024-02-21T02:11:25;9.90;89.80
86002;DHT22;76581;51.988;5.854;2024-02-21T02:12:27;9.90;89.80
86002;DHT22;76581;51.988;5.854;2024-02-21T02:13:27;9.90;89.70
86002;DHT22;76581;51.988;5.854;2024-02-21T02:14:28;9.90;89.80
86002;DHT22;76581;51.988;5.854;2024-02-21T02:15:41;9.90;89.90
86002;DHT22;76581;51.988;5.854;2024-02-21T02:16:42;9.90;89.90
86002;DHT22;76581;51.988;5.854;2024-02-21T02:17:42;9.90;89.80
86002;DHT22;76581;51.988;5.854;2024-02-21T02:18:43;9.90;89.80
86002;DHT22;76581;51.988;5.854;2024-02-21T02:19:43;9.90;89.90
86002;DHT22;76581;51.988;5.854;2024-02-21T02:20:45;9.90;89.90
86002;DHT22;76581;51.988;5.854;2024-02-21T02:21:57;9.90;89.90
86002;DHT22;76581;51.988;5.854;2024-02-21T02:23:09;9.90;89.80
86002;DHT22;76581;51.988;5.854;2024-02-21T02:24:10;9.90;89.80
86002;DHT22;76581;51.988;5.854;2024-02-21T02:25:11;9.90;89.90
86002;DHT22;76581;51.988;5.854;2024-02-21T02:26:12;9.90;89.80
86002;DHT22;76581;51.988;5.854;2024-02-21T02:27:12;9.90;89.80
86002;DHT22;76581;51.988;5.854;2024-02-21T02:28:13;9.90;89.80
86002;DHT22;76581;51.988;5.854;2024-02-21T02:29:13;9.90;89.90
86002;DHT22;76581;51.988;5.854;2024-02-21T02:30:14;9.90;89.80
86002;DHT22;76581;51.988;5.854;2024-02-21T02:31:15;9.90;89.80
86002;DHT22;76581;51.988;5.854;2024-02-21T02:32:16;9.90;89.80
86002;DHT22;76581;51.988;5.854;2024-02-21T02:33:16;9.90;89.80
86002;DHT22;76581;51.988;5.854;2024-02-21T02:34:20;9.90;89.80
86002;DHT22;76581;51.988;5.854;2024-02-21T02:35:20;9.90;89.90
86002;DHT22;76581;51.988;5.854;2024-02-21T02:36:21;9.90;89.80
86002;DHT22;76581;51.988;5.854;2024-02-21T02:37:21;9.90;89.80
86002;DHT22;76581;51.988;5.854;2024-02-21T02:38:22;9.90;89.70
86002;DHT22;76581;51.988;5.854;2024-02-21T02:39:22;9.90;89.70
86002;DHT22;76581;51.988;5.854;2024-02-21T02:40:23;9.90;89.70
86002;DHT22;76581;51.988;5.854;2024-02-21T02:41:23;9.90;90.20
86002;DHT22;76581;51.988;5.854;2024-02-21T02:42:24;9.90;89.70
86002;DHT22;76581;51.988;5.854;2024-02-21T02:43:24;9.90;89.70
86002;DHT22;76581;51.988;5.854;2024-02-21T02:44:25;9.90;89.70
86002;DHT22;76581;51.988;5.854;2024-02-21T02:45:26;9.90;89.70
86002;DHT22;76581;51.988;5.854;2024-02-21T02:46:26;9.90;89.70
86002;DHT22;76581;51.988;5.854;2024-02-21T02:47:27;9.90;89.70
86002;DHT22;76581;51.988;5.854;2024-02-21T02:48:27;9.90;89.70
86002;DHT22;76581;51.988;5.854;2024-02-21T02:49:28;9.90;89.70
86002;DHT22;76581;51.988;5.854;2024-02-21T02:50:28;9.90;89.80
86002;DHT22;76581;51.988;5.854;2024-02-21T02:51:29;9.90;89.80
86002;DHT22;76581;51.988;5.854;2024-02-21T02:52:29;9.90;89.80
86002;DHT22;76581;51.988;5.854;2024-02-21T02:53:30;9.90;89.80
86002;DHT22;76581;51.988;5.854;2024-02-21T02:54:30;9.90;89.80
86002;DHT22;76581;51.988;5.854;2024-02-21T02:55:31;9.90;89.90
86002;DHT22;76581;51.988;5.854;2024-02-21T02:56:31;9.80;89.70
86002;DHT22;76581;51.988;5.854;2024-02-21T02:57:32;9.90;89.90
86002;DHT22;76581;51.988;5.854;2024-02-21T02:58:33;9.90;89.90
86002;DHT22;76581;51.988;5.854;2024-02-21T02:59:35;9.90;89.90
86002;DHT22;76581;51.988;5.854;2024-02-21T03:00:35;9.90;89.80
86002;DHT22;76581;51.988;5.854;2024-02-21T03:01:36;9.80;89.70
86002;DHT22;76581;51.988;5.854;2024-02-21T03:02:42;9.80;89.70
86002;DHT22;76581;51.988;5.854;2024-02-21T03:03:43;9.80;89.80
86002;DHT22;76581;51.988;5.854;2024-02-21T03:04:45;9.80;89.80
86002;DHT22;76581;51.988;5.854;2024-02-21T03:05:46;9.80;89.90
86002;DHT22;76581;51.988;5.854;2024-02-21T03:06:46;9.80;89.90
86002;DHT22;76581;51.988;5.854;2024-02-21T03:07:48;9.80;89.80
86002;DHT22;76581;51.988;5.854;2024-02-21T03:08:49;9.80;89.70
86002;DHT22;76581;51.988;5.854;2024-02-21T03:09:49;9.80;89.80
86002;DHT22;76581;51.988;5.854;2024-02-21T03:10:50;9.80;89.80
86002;DHT22;76581;51.988;5.854;2024-02-21T03:11:50;9.80;89.80
86002;DHT22;76581;51.988;5.854;2024-02-21T03:12:51;9.80;89.80
86002;DHT22;76581;51.988;5.854;2024-02-21T03:13:53;9.80;89.70
86002;DHT22;76581;51.988;5.854;2024-02-21T03:14:54;9.80;89.80
86002;DHT22;76581;51.988;5.854;2024-02-21T03:15:54;9.80;89.80
86002;DHT22;76581;51.988;5.854;2024-02-21T03:16:55;9.80;89.80
86002;DHT22;76581;51.988;5.854;2024-02-21T03:17:55;9.80;90.20
86002;DHT22;76581;51.988;5.854;2024-02-21T03:18:56;9.80;89.70
86002;DHT22;76581;51.988;5.854;2024-02-21T03:19:56;9.80;89.70
86002;DHT22;76581;51.988;5.854;2024-02-21T03:20:57;9.80;89.80
86002;DHT22;76581;51.988;5.854;2024-02-21T03:21:57;9.80;89.70
86002;DHT22;76581;51.988;5.854;2024-02-21T03:22:58;9.80;89.70
86002;DHT22;76581;51.988;5.854;2024-02-21T03:23:58;9.80;89.70
86002;DHT22;76581;51.988;5.854;2024-02-21T03:24:59;9.80;89.70
86002;DHT22;76581;51.988;5.854;2024-02-21T03:25:59;9.80;89.70
86002;DHT22;76581;51.988;5.854;2024-02-21T03:27:00;9.80;89.70
86002;DHT22;76581;51.988;5.854;2024-02-21T03:28:01;9.80;89.70
86002;DHT22;76581;51.988;5.854;2024-02-21T03:29:03;9.80;89.80
86002;DHT22;76581;51.988;5.854;2024-02-21T03:30:04;9.80;89.90
86002;DHT22;76581;51.988;5.854;2024-02-21T03:31:05;9.80;89.80
86002;DHT22;76581;51.988;5.854;2024-02-21T03:32:05;9.80;89.80
86002;DHT22;76581;51.988;5.854;2024-02-21T03:33:06;9.80;89.80
86002;DHT22;76581;51.988;5.854;2024-02-21T03:34:06;9.80;89.90
86002;DHT22;76581;51.988;5.854;2024-02-21T03:35:07;9.80;89.90
86002;DHT22;76581;51.988;5.854;2024-02-21T03:36:13;9.80;89.90
86002;DHT22;76581;51.988;5.854;2024-02-21T03:37:14;9.80;89.90
86002;DHT22;76581;51.988;5.854;2024-02-21T03:38:15;9.80;89.90
86002;DHT22;76581;51.988;5.854;2024-02-21T03:39:15;9.80;89.90
86002;DHT22;76581;51.988;5.854;2024-02-21T03:40:16;9.80;89.90
86002;DHT22;76581;51.988;5.854;2024-02-21T03:41:16;9.80;89.90
86002;DHT22;76581;51.988;5.854;2024-02-21T03:42:17;9.80;89.80
86002;DHT22;76581;51.988;5.854;2024-02-21T03:43:18;9.80;89.70
86002;DHT22;76581;51.988;5.854;2024-02-21T03:44:18;9.80;89.70
86002;DHT22;76581;51.988;5.854;2024-02-21T03:45:19;9.80;89.70
86002;DHT22;76581;51.988;5.854;2024-02-21T03:46:20;9.80;89.90
86002;DHT22;76581;51.988;5.854;2024-02-21T03:47:20;9.80;89.80
86002;DHT22;76581;51.988;5.854;2024-02-21T03:48:21;9.80;89.90
86002;DHT22;76581;51.988;5.854;2024-02-21T03:49:22;9.80;89.80
86002;DHT22;76581;51.988;5.854;2024-02-21T03:50:22;9.90;90.00
86002;DHT22;76581;51.988;5.854;2024-02-21T03:51:23;9.80;89.70
86002;DHT22;76581;51.988;5.854;2024-02-21T03:52:24;9.90;89.80
86002;DHT22;76581;51.988;5.854;2024-02-21T03:53:24;9.80;89.70
86002;DHT22;76581;51.988;5.854;2024-02-21T03:54:25;9.80;89.70
86002;DHT22;76581;51.988;5.854;2024-02-21T03:55:25;9.80;89.70
86002;DHT22;76581;51.988;5.854;2024-02-21T03:56:26;9.80;89.70
86002;DHT22;76581;51.988;5.854;2024-02-21T03:57:26;9.80;89.70
86002;DHT22;76581;51.988;5.854;2024-02-21T03:58:27;9.80;89.70
86002;DHT22;76581;51.988;5.854;2024-02-21T03:59:27;9.80;89.70
86002;DHT22;76581;51.988;5.854;2024-02-21T04:00:28;9.80;89.80
86002;DHT22;76581;51.988;5.854;2024-02-21T04:01:28;9.80;89.70
86002;DHT22;76581;51.988;5.854;2024-02-21T04:02:29;9.80;89.80
86002;DHT22;76581;51.988;5.854;2024-02-21T04:03:30;9.90;89.90
86002;DHT22;76581;51.988;5.854;2024-02-21T04:04:31;9.90;89.80
86002;DHT22;76581;51.988;5.854;2024-02-21T04:05:32;9.90;89.80
86002;DHT22;76581;51.988;5.854;2024-02-21T04:06:33;9.80;89.60
86002;DHT22;76581;51.988;5.854;2024-02-21T04:07:33;9.90;89.70
86002;DHT22;76581;51.988;5.854;2024-02-21T04:08:34;9.90;89.70
86002;DHT22;76581;51.988;5.854;2024-02-21T04:09:34;9.90;89.70
86002;DHT22;76581;51.988;5.854;2024-02-21T04:10:35;9.90;89.70
86002;DHT22;76581;51.988;5.854;2024-02-21T04:11:35;9.80;89.70
86002;DHT22;76581;51.988;5.854;2024-02-21T04:12:37;9.90;89.70
86002;DHT22;76581;51.988;5.854;2024-02-21T04:13:38;9.90;89.70
86002;DHT22;76581;51.988;5.854;2024-02-21T04:14:39;9.90;89.60
86002;DHT22;76581;51.988;5.854;2024-02-21T04:15:40;9.90;89.60
86002;DHT22;76581;51.988;5.854;2024-02-21T04:16:40;9.90;89.60
86002;DHT22;76581;51.988;5.854;2024-02-21T04:17:41;9.90;89.60
86002;DHT22;76581;51.988;5.854;2024-02-21T04:18:42;9.90;89.60
86002;DHT22;76581;51.988;5.854;2024-02-21T04:19:43;9.90;89.60
86002;DHT22;76581;51.988;5.854;2024-02-21T04:20:43;9.90;89.60
86002;DHT22;76581;51.988;5.854;2024-02-21T04:21:44;9.90;89.60
86002;DHT22;76581;51.988;5.854;2024-02-21T04:22:45;9.90;89.60
86002;DHT22;76581;51.988;5.854;2024-02-21T04:23:46;9.90;89.60
86002;DHT22;76581;51.988;5.854;2024-02-21T04:24:46;9.90;89.60
86002;DHT22;76581;51.988;5.854;2024-02-21T04:25:47;9.90;89.60
86002;DHT22;76581;51.988;5.854;2024-02-21T04:26:47;9.90;89.50
86002;DHT22;76581;51.988;5.854;2024-02-21T04:27:48;9.90;89.40
86002;DHT22;76581;51.988;5.854;2024-02-21T04:28:48;9.80;89.40
86002;DHT22;76581;51.988;5.854;2024-02-21T04:29:49;9.90;89.30
86002;DHT22;76581;51.988;5.854;2024-02-21T04:30:50;9.90;89.30
86002;DHT22;76581;51.988;5.854;2024-02-21T04:31:50;9.80;89.20
86002;DHT22;76581;51.988;5.854;2024-02-21T04:32:51;9.80;89.30
86002;DHT22;76581;51.988;5.854;2024-02-21T04:33:51;9.80;89.40
86002;DHT22;76581;51.988;5.854;2024-02-21T04:34:52;9.80;89.40
86002;DHT22;76581;51.988;5.854;2024-02-21T04:35:52;9.90;89.30
86002;DHT22;76581;51.988;5.854;2024-02-21T04:36:55;9.80;89.20
86002;DHT22;76581;51.988;5.854;2024-02-21T04:37:55;9.80;89.30
86002;DHT22;76581;51.988;5.854;2024-02-21T04:38:56;9.80;89.20
86002;DHT22;76581;51.988;5.854;2024-02-21T04:39:56;9.80;89.20
86002;DHT22;76581;51.988;5.854;2024-02-21T04:40:57;9.80;89.30
86002;DHT22;76581;51.988;5.854;2024-02-21T04:41:58;9.80;89.30
86002;DHT22;76581;51.988;5.854;2024-02-21T04:42:59;9.80;89.20
86002;DHT22;76581;51.988;5.854;2024-02-21T04:43:59;9.80;89.20
86002;DHT22;76581;51.988;5.854;2024-02-21T04:45:00;9.80;89.20
86002;DHT22;76581;51.988;5.854;2024-02-21T04:46:00;9.80;89.20
86002;DHT22;76581;51.988;5.854;2024-02-21T04:47:01;9.80;89.30
86002;DHT22;76581;51.988;5.854;2024-02-21T04:48:02;9.80;89.20
86002;DHT22;76581;51.988;5.854;2024-02-21T04:49:03;9.80;89.40
86002;DHT22;76581;51.988;5.854;2024-02-21T04:50:03;9.80;89.20
86002;DHT22;76581;51.988;5.854;2024-02-21T04:51:04;9.80;89.20
86002;DHT22;76581;51.988;5.854;2024-02-21T04:52:05;9.80;89.30
86002;DHT22;76581;51.988;5.854;2024-02-21T04:53:05;9.80;89.20
86002;DHT22;76581;51.988;5.854;2024-02-21T04:54:06;9.80;89.20
86002;DHT22;76581;51.988;5.854;2024-02-21T04:55:06;9.80;89.20
86002;DHT22;76581;51.988;5.854;2024-02-21T04:56:07;9.80;89.20
86002;DHT22;76581;51.988;5.854;2024-02-21T04:57:08;9.80;89.30
86002;DHT22;76581;51.988;5.854;2024-02-21T04:58:10;9.80;89.30
86002;DHT22;76581;51.988;5.854;2024-02-21T04:59:11;9.80;89.20
86002;DHT22;76581;51.988;5.854;2024-02-21T05:00:11;9.80;89.20
86002;DHT22;76581;51.988;5.854;2024-02-21T05:01:12;9.80;89.20
86002;DHT22;76581;51.988;5.854;2024-02-21T05:02:13;9.80;89.20
86002;DHT22;76581;51.988;5.854;2024-02-21T05:03:14;9.80;89.20
86002;DHT22;76581;51.988;5.854;2024-02-21T05:04:15;9.80;89.30
86002;DHT22;76581;51.988;5.854;2024-02-21T05:05:15;9.80;89.20
86002;DHT22;76581;51.988;5.854;2024-02-21T05:06:17;9.80;89.10
86002;DHT22;76581;51.988;5.854;2024-02-21T05:07:17;9.80;89.20
86002;DHT22;76581;51.988;5.854;2024-02-21T05:08:19;9.80;89.20
86002;DHT22;76581;51.988;5.854;2024-02-21T05:09:20;9.80;89.20
86002;DHT22;76581;51.988;5.854;2024-02-21T05:10:21;9.80;89.10
86002;DHT22;76581;51.988;5.854;2024-02-21T05:11:22;9.80;89.00
86002;DHT22;76581;51.988;5.854;2024-02-21T05:12:22;9.80;89.10
86002;DHT22;76581;51.988;5.854;2024-02-21T05:13:23;9.80;89.10
86002;DHT22;76581;51.988;5.854;2024-02-21T05:14:23;9.80;89.20
86002;DHT22;76581;51.988;5.854;2024-02-21T05:15:24;9.80;89.20
86002;DHT22;76581;51.988;5.854;2024-02-21T05:16:24;9.80;89.10
86002;DHT22;76581;51.988;5.854;2024-02-21T05:17:25;9.80;89.10
86002;DHT22;76581;51.988;5.854;2024-02-21T05:18:25;9.80;89.10
86002;DHT22;76581;51.988;5.854;2024-02-21T05:19:26;9.80;89.10
86002;DHT22;76581;51.988;5.854;2024-02-21T05:20:26;9.80;89.10
86002;DHT22;76581;51.988;5.854;2024-02-21T05:21:27;9.80;89.10
86002;DHT22;76581;51.988;5.854;2024-02-21T05:22:28;9.80;89.10
86002;DHT22;76581;51.988;5.854;2024-02-21T05:23:29;9.80;89.00
86002;DHT22;76581;51.988;5.854;2024-02-21T05:24:29;9.80;89.10
86002;DHT22;76581;51.988;5.854;2024-02-21T05:25:30;9.80;89.00
86002;DHT22;76581;51.988;5.854;2024-02-21T05:26:30;9.80;89.10
86002;DHT22;76581;51.988;5.854;2024-02-21T05:27:31;9.80;89.10
86002;DHT22;76581;51.988;5.854;2024-02-21T05:28:31;9.80;89.10
86002;DHT22;76581;51.988;5.854;2024-02-21T05:29:33;9.80;89.10
86002;DHT22;76581;51.988;5.854;2024-02-21T05:30:34;9.80;89.00
86002;DHT22;76581;51.988;5.854;2024-02-21T05:32:53;9.80;88.90
86002;DHT22;76581;51.988;5.854;2024-02-21T05:33:53;9.80;88.90
86002;DHT22;76581;51.988;5.854;2024-02-21T05:34:54;9.80;88.90
86002;DHT22;76581;51.988;5.854;2024-02-21T05:35:55;9.80;88.90
86002;DHT22;76581;51.988;5.854;2024-02-21T05:36:55;9.80;88.90
86002;DHT22;76581;51.988;5.854;2024-02-21T05:37:57;9.80;88.90
86002;DHT22;76581;51.988;5.854;2024-02-21T05:38:59;9.80;88.80
86002;DHT22;76581;51.988;5.854;2024-02-21T05:40:00;9.80;88.90
86002;DHT22;76581;51.988;5.854;2024-02-21T05:41:00;9.80;88.80
86002;DHT22;76581;51.988;5.854;2024-02-21T05:42:01;9.80;88.90
86002;DHT22;76581;51.988;5.854;2024-02-21T05:43:01;9.80;89.00
86002;DHT22;76581;51.988;5.854;2024-02-21T05:44:02;9.80;88.90
86002;DHT22;76581;51.988;5.854;2024-02-21T05:45:03;9.80;88.90
86002;DHT22;76581;51.988;5.854;2024-02-21T05:46:04;9.80;88.90
86002;DHT22;76581;51.988;5.854;2024-02-21T05:47:04;9.80;88.80
86002;DHT22;76581;51.988;5.854;2024-02-21T05:48:05;9.80;88.90
86002;DHT22;76581;51.988;5.854;2024-02-21T05:49:05;9.80;88.90
86002;DHT22;76581;51.988;5.854;2024-02-21T05:50:07;9.80;89.00
86002;DHT22;76581;51.988;5.854;2024-02-21T05:51:08;9.80;88.90
86002;DHT22;76581;51.988;5.854;2024-02-21T05:52:08;9.80;88.90
86002;DHT22;76581;51.988;5.854;2024-02-21T05:53:09;9.80;88.90
86002;DHT22;76581;51.988;5.854;2024-02-21T05:54:10;9.70;88.80
86002;DHT22;76581;51.988;5.854;2024-02-21T05:55:11;9.80;88.90
86002;DHT22;76581;51.988;5.854;2024-02-21T05:56:12;9.80;88.90
86002;DHT22;76581;51.988;5.854;2024-02-21T05:57:13;9.80;88.90
86002;DHT22;76581;51.988;5.854;2024-02-21T05:58:13;9.80;88.90
86002;DHT22;76581;51.988;5.854;2024-02-21T05:59:14;9.80;88.90
86002;DHT22;76581;51.988;5.854;2024-02-21T06:00:15;9.80;88.90
86002;DHT22;76581;51.988;5.854;2024-02-21T06:01:16;9.80;88.90
86002;DHT22;76581;51.988;5.854;2024-02-21T06:02:16;9.80;89.00
86002;DHT22;76581;51.988;5.854;2024-02-21T06:03:17;9.80;89.10
86002;DHT22;76581;51.988;5.854;2024-02-21T06:04:18;9.70;88.90
86002;DHT22;76581;51.988;5.854;2024-02-21T06:05:18;9.80;88.90
86002;DHT22;76581;51.988;5.854;2024-02-21T06:06:19;9.80;88.80
86002;DHT22;76581;51.988;5.854;2024-02-21T06:07:21;9.80;88.90
86002;DHT22;76581;51.988;5.854;2024-02-21T06:08:21;9.80;88.90
86002;DHT22;76581;51.988;5.854;2024-02-21T06:09:22;9.80;88.90
86002;DHT22;76581;51.988;5.854;2024-02-21T06:10:22;9.80;88.90
86002;DHT22;76581;51.988;5.854;2024-02-21T06:11:23;9.80;89.00
86002;DHT22;76581;51.988;5.854;2024-02-21T06:12:23;9.80;88.90
86002;DHT22;76581;51.988;5.854;2024-02-21T06:13:24;9.80;89.80
86002;DHT22;76581;51.988;5.854;2024-02-21T06:14:24;9.80;88.90
86002;DHT22;76581;51.988;5.854;2024-02-21T06:15:25;9.80;88.90
86002;DHT22;76581;51.988;5.854;2024-02-21T06:16:25;9.80;88.90
86002;DHT22;76581;51.988;5.854;2024-02-21T06:17:26;9.80;88.90
86002;DHT22;76581;51.988;5.854;2024-02-21T06:18:26;9.80;88.90
86002;DHT22;76581;51.988;5.854;2024-02-21T06:19:27;9.80;88.90
86002;DHT22;76581;51.988;5.854;2024-02-21T06:20:28;9.80;88.90
86002;DHT22;76581;51.988;5.854;2024-02-21T06:21:31;9.80;88.90
86002;DHT22;76581;51.988;5.854;2024-02-21T06:22:31;9.80;89.00
86002;DHT22;76581;51.988;5.854;2024-02-21T06:23:32;9.80;89.00
86002;DHT22;76581;51.988;5.854;2024-02-21T06:24:32;9.80;88.90
86002;DHT22;76581;51.988;5.854;2024-02-21T06:25:33;9.80;88.90
86002;DHT22;76581;51.988;5.854;2024-02-21T06:26:33;9.80;88.90
86002;DHT22;76581;51.988;5.854;2024-02-21T06:27:34;9.80;88.80
86002;DHT22;76581;51.988;5.854;2024-02-21T06:28:34;9.80;88.80
86002;DHT22;76581;51.988;5.854;2024-02-21T06:29:35;9.80;88.80
86002;DHT22;76581;51.988;5.854;2024-02-21T06:30:36;9.80;88.80